sensor_id;sensor_type;location;lat;lon;timestamp;P1;durP1;ratioP1;P2;durP2;ratioP2
16832;SDS011;8533;48.426;10.868;2022-08-01T00:02:21;3.97;;;3.00;;
16832;SDS011;8533;48.426;10.868;2022-08-01T00:04:48;3.33;;;3.03;;
16832;SDS011;8533;48.426;10.868;2022-08-01T00:07:15;3.20;;;2.90;;
16832;SDS011;8533;48.426;10.868;2022-08-01T00:09:43;4.03;;;2.90;;
16832;SDS011;8533;48.426;10.868;2022-08-01T00:12:10;3.27;;;2.97;;
16832;SDS011;8533;48.426;10.868;2022-08-01T00:14:38;3.20;;;2.90;;
16832;SDS011;8533;48.426;10.868;2022-08-01T00:17:05;4.10;;;3.07;;
16832;SDS011;8533;48.426;10.868;2022-08-01T00:19:32;5.43;;;3.17;;
16832;SDS011;8533;48.426;10.868;2022-08-01T00:22:00;3.60;;;3.30;;
16832;SDS011;8533;48.426;10.868;2022-08-01T00:24:28;3.50;;;3.20;;
16832;SDS011;8533;48.426;10.868;2022-08-01T00:26:55;3.00;;;2.80;;
16832;SDS011;8533;48.426;10.868;2022-08-01T00:29:22;3.40;;;3.10;;
16832;SDS011;8533;48.426;10.868;2022-08-01T00:31:50;5.07;;;3.90;;
16832;SDS011;8533;48.426;10.868;2022-08-01T00:34:17;4.23;;;3.80;;
16832;SDS011;8533;48.426;10.868;2022-08-01T00:36:45;3.87;;;3.20;;
16832;SDS011;8533;48.426;10.868;2022-08-01T00:39:12;3.50;;;2.93;;
16832;SDS011;8533;48.426;10.868;2022-08-01T00:41:40;3.30;;;3.00;;
16832;SDS011;8533;48.426;10.868;2022-08-01T00:44:07;3.40;;;3.10;;
16832;SDS011;8533;48.426;10.868;2022-08-01T00:46:35;3.73;;;3.30;;
16832;SDS011;8533;48.426;10.868;2022-08-01T00:49:02;3.30;;;3.00;;
16832;SDS011;8533;48.426;10.868;2022-08-01T00:51:30;3.70;;;3.40;;
16832;SDS011;8533;48.426;10.868;2022-08-01T00:53:59;3.53;;;3.23;;
16832;SDS011;8533;48.426;10.868;2022-08-01T00:56:27;3.30;;;3.00;;
16832;SDS011;8533;48.426;10.868;2022-08-01T00:58:55;3.30;;;3.00;;
16832;SDS011;8533;48.426;10.868;2022-08-01T01:01:22;3.30;;;3.00;;
16832;SDS011;8533;48.426;10.868;2022-08-01T01:03:51;3.40;;;2.77;;
16832;SDS011;8533;48.426;10.868;2022-08-01T01:11:30;3.07;;;2.70;;
16832;SDS011;8533;48.426;10.868;2022-08-01T01:16:33;5.33;;;2.87;;
16832;SDS011;8533;48.426;10.868;2022-08-01T01:19:02;3.70;;;3.00;;
16832;SDS011;8533;48.426;10.868;2022-08-01T01:21:39;3.17;;;2.87;;
16832;SDS011;8533;48.426;10.868;2022-08-01T01:29:48;3.20;;;2.87;;
16832;SDS011;8533;48.426;10.868;2022-08-01T01:32:20;3.33;;;2.97;;
16832;SDS011;8533;48.426;10.868;2022-08-01T01:37:25;3.40;;;3.10;;
16832;SDS011;8533;48.426;10.868;2022-08-01T01:39:53;2.90;;;2.70;;
16832;SDS011;8533;48.426;10.868;2022-08-01T01:42:22;4.10;;;3.00;;
16832;SDS011;8533;48.426;10.868;2022-08-01T01:44:51;5.30;;;3.03;;
16832;SDS011;8533;48.426;10.868;2022-08-01T01:47:20;3.93;;;3.00;;
16832;SDS011;8533;48.426;10.868;2022-08-01T01:49:49;3.50;;;2.87;;
16832;SDS011;8533;48.426;10.868;2022-08-01T01:52:19;3.10;;;2.80;;
16832;SDS011;8533;48.426;10.868;2022-08-01T01:54:47;5.87;;;2.93;;
16832;SDS011;8533;48.426;10.868;2022-08-01T01:57:16;3.10;;;2.80;;
16832;SDS011;8533;48.426;10.868;2022-08-01T01:59:45;3.33;;;3.03;;
16832;SDS011;8533;48.426;10.868;2022-08-01T02:02:14;3.37;;;3.07;;
16832;SDS011;8533;48.426;10.868;2022-08-01T02:04:43;3.03;;;2.77;;
16832;SDS011;8533;48.426;10.868;2022-08-01T02:07:14;6.70;;;2.90;;
16832;SDS011;8533;48.426;10.868;2022-08-01T02:09:43;3.20;;;2.90;;
16832;SDS011;8533;48.426;10.868;2022-08-01T02:12:12;3.00;;;2.70;;
16832;SDS011;8533;48.426;10.868;2022-08-01T02:14:40;2.70;;;2.50;;
16832;SDS011;8533;48.426;10.868;2022-08-01T02:17:11;2.73;;;2.50;;
16832;SDS011;8533;48.426;10.868;2022-08-01T02:19:40;3.13;;;2.80;;
16832;SDS011;8533;48.426;10.868;2022-08-01T02:22:16;2.97;;;2.60;;
16832;SDS011;8533;48.426;10.868;2022-08-01T02:27:25;3.50;;;3.00;;
16832;SDS011;8533;48.426;10.868;2022-08-01T02:30:10;2.60;;;2.40;;
16832;SDS011;8533;48.426;10.868;2022-08-01T02:32:43;3.17;;;2.63;;
16832;SDS011;8533;48.426;10.868;2022-08-01T02:37:47;3.13;;;2.53;;
16832;SDS011;8533;48.426;10.868;2022-08-01T02:40:16;3.47;;;2.73;;
16832;SDS011;8533;48.426;10.868;2022-08-01T02:42:44;2.93;;;2.50;;
16832;SDS011;8533;48.426;10.868;2022-08-01T02:45:14;3.73;;;2.70;;
16832;SDS011;8533;48.426;10.868;2022-08-01T02:47:43;3.20;;;2.47;;
16832;SDS011;8533;48.426;10.868;2022-08-01T02:50:12;3.33;;;3.03;;
16832;SDS011;8533;48.426;10.868;2022-08-01T02:52:42;3.00;;;2.80;;
16832;SDS011;8533;48.426;10.868;2022-08-01T02:55:12;2.73;;;2.50;;
16832;SDS011;8533;48.426;10.868;2022-08-01T02:57:41;2.80;;;2.60;;
16832;SDS011;8533;48.426;10.868;2022-08-01T03:00:10;2.70;;;2.50;;
16832;SDS011;8533;48.426;10.868;2022-08-01T03:02:38;4.87;;;2.60;;
16832;SDS011;8533;48.426;10.868;2022-08-01T03:05:08;5.17;;;2.47;;
16832;SDS011;8533;48.426;10.868;2022-08-01T03:07:36;3.87;;;2.60;;
16832;SDS011;8533;48.426;10.868;2022-08-01T03:10:05;2.80;;;2.60;;
16832;SDS011;8533;48.426;10.868;2022-08-01T03:12:33;3.60;;;2.87;;
16832;SDS011;8533;48.426;10.868;2022-08-01T03:15:03;3.10;;;2.80;;
16832;SDS011;8533;48.426;10.868;2022-08-01T03:17:32;4.10;;;2.97;;
16832;SDS011;8533;48.426;10.868;2022-08-01T03:20:02;2.90;;;2.60;;
16832;SDS011;8533;48.426;10.868;2022-08-01T03:22:31;3.47;;;2.80;;
16832;SDS011;8533;48.426;10.868;2022-08-01T03:25:00;2.80;;;2.40;;
16832;SDS011;8533;48.426;10.868;2022-08-01T03:27:29;2.73;;;2.50;;
16832;SDS011;8533;48.426;10.868;2022-08-01T03:29:57;3.23;;;2.93;;
16832;SDS011;8533;48.426;10.868;2022-08-01T03:32:26;3.43;;;2.47;;
16832;SDS011;8533;48.426;10.868;2022-08-01T03:34:56;2.93;;;2.63;;
16832;SDS011;8533;48.426;10.868;2022-08-01T03:37:25;3.10;;;2.60;;
16832;SDS011;8533;48.426;10.868;2022-08-01T03:39:57;2.90;;;2.60;;
16832;SDS011;8533;48.426;10.868;2022-08-01T03:45:03;2.83;;;2.43;;
16832;SDS011;8533;48.426;10.868;2022-08-01T03:47:35;2.90;;;2.60;;
16832;SDS011;8533;48.426;10.868;2022-08-01T03:50:04;3.50;;;2.53;;
16832;SDS011;8533;48.426;10.868;2022-08-01T03:52:33;2.90;;;2.60;;
16832;SDS011;8533;48.426;10.868;2022-08-01T03:55:05;3.03;;;2.73;;
16832;SDS011;8533;48.426;10.868;2022-08-01T03:57:33;8.43;;;2.90;;
16832;SDS011;8533;48.426;10.868;2022-08-01T04:00:02;3.23;;;2.70;;
16832;SDS011;8533;48.426;10.868;2022-08-01T04:02:34;3.97;;;2.80;;
16832;SDS011;8533;48.426;10.868;2022-08-01T04:05:03;2.93;;;2.73;;
16832;SDS011;8533;48.426;10.868;2022-08-01T04:07:31;5.33;;;2.90;;
16832;SDS011;8533;48.426;10.868;2022-08-01T04:10:01;4.27;;;2.97;;
16832;SDS011;8533;48.426;10.868;2022-08-01T04:12:29;7.97;;;2.80;;
16832;SDS011;8533;48.426;10.868;2022-08-01T04:14:58;3.23;;;2.93;;
16832;SDS011;8533;48.426;10.868;2022-08-01T04:17:25;3.43;;;3.13;;
16832;SDS011;8533;48.426;10.868;2022-08-01T04:19:52;2.87;;;2.57;;
16832;SDS011;8533;48.426;10.868;2022-08-01T04:22:20;2.90;;;2.70;;
16832;SDS011;8533;48.426;10.868;2022-08-01T04:24:48;3.50;;;3.10;;
16832;SDS011;8533;48.426;10.868;2022-08-01T04:27:41;3.37;;;2.83;;
16832;SDS011;8533;48.426;10.868;2022-08-01T04:29:49;3.90;;;3.13;;
16832;SDS011;8533;48.426;10.868;2022-08-01T04:32:20;2.67;;;2.47;;
16832;SDS011;8533;48.426;10.868;2022-08-01T04:34:49;2.87;;;2.57;;
16832;SDS011;8533;48.426;10.868;2022-08-01T04:37:17;3.47;;;2.77;;
16832;SDS011;8533;48.426;10.868;2022-08-01T04:39:45;3.03;;;2.80;;
16832;SDS011;8533;48.426;10.868;2022-08-01T04:42:14;2.70;;;2.50;;
16832;SDS011;8533;48.426;10.868;2022-08-01T04:44:42;3.07;;;2.60;;
16832;SDS011;8533;48.426;10.868;2022-08-01T04:47:10;3.67;;;2.87;;
16832;SDS011;8533;48.426;10.868;2022-08-01T04:49:39;3.33;;;2.80;;
16832;SDS011;8533;48.426;10.868;2022-08-01T04:52:07;3.73;;;2.80;;
16832;SDS011;8533;48.426;10.868;2022-08-01T04:54:35;3.90;;;3.00;;
16832;SDS011;8533;48.426;10.868;2022-08-01T04:57:03;5.27;;;3.23;;
16832;SDS011;8533;48.426;10.868;2022-08-01T04:59:32;3.33;;;3.03;;
16832;SDS011;8533;48.426;10.868;2022-08-01T05:04:36;5.23;;;2.80;;
16832;SDS011;8533;48.426;10.868;2022-08-01T05:07:05;4.23;;;2.90;;
16832;SDS011;8533;48.426;10.868;2022-08-01T05:09:33;6.17;;;2.97;;
16832;SDS011;8533;48.426;10.868;2022-08-01T05:12:03;5.67;;;2.53;;
16832;SDS011;8533;48.426;10.868;2022-08-01T05:14:32;4.93;;;3.00;;
16832;SDS011;8533;48.426;10.868;2022-08-01T05:17:00;2.93;;;2.73;;
16832;SDS011;8533;48.426;10.868;2022-08-01T05:19:30;3.80;;;2.60;;
16832;SDS011;8533;48.426;10.868;2022-08-01T05:21:59;2.97;;;2.67;;
16832;SDS011;8533;48.426;10.868;2022-08-01T05:24:31;3.20;;;2.70;;
16832;SDS011;8533;48.426;10.868;2022-08-01T05:26:59;5.10;;;2.40;;
16832;SDS011;8533;48.426;10.868;2022-08-01T05:29:27;3.00;;;2.70;;
16832;SDS011;8533;48.426;10.868;2022-08-01T05:31:55;2.73;;;2.50;;
16832;SDS011;8533;48.426;10.868;2022-08-01T05:34:24;2.67;;;2.47;;
16832;SDS011;8533;48.426;10.868;2022-08-01T05:36:52;2.87;;;2.50;;
16832;SDS011;8533;48.426;10.868;2022-08-01T05:39:19;3.93;;;2.70;;
16832;SDS011;8533;48.426;10.868;2022-08-01T05:41:47;3.17;;;2.80;;
16832;SDS011;8533;48.426;10.868;2022-08-01T05:44:14;2.93;;;2.63;;
16832;SDS011;8533;48.426;10.868;2022-08-01T05:46:42;5.27;;;2.57;;
16832;SDS011;8533;48.426;10.868;2022-08-01T05:49:09;3.53;;;2.60;;
16832;SDS011;8533;48.426;10.868;2022-08-01T05:51:37;5.23;;;2.90;;
16832;SDS011;8533;48.426;10.868;2022-08-01T05:54:04;3.33;;;2.43;;
16832;SDS011;8533;48.426;10.868;2022-08-01T05:56:32;3.10;;;2.67;;
16832;SDS011;8533;48.426;10.868;2022-08-01T05:59:00;3.43;;;2.60;;
16832;SDS011;8533;48.426;10.868;2022-08-01T06:01:28;2.90;;;2.60;;
16832;SDS011;8533;48.426;10.868;2022-08-01T06:03:55;2.70;;;2.50;;
16832;SDS011;8533;48.426;10.868;2022-08-01T06:06:23;2.83;;;2.20;;
16832;SDS011;8533;48.426;10.868;2022-08-01T06:08:50;2.70;;;2.47;;
16832;SDS011;8533;48.426;10.868;2022-08-01T06:11:17;3.10;;;2.33;;
16832;SDS011;8533;48.426;10.868;2022-08-01T06:13:45;2.60;;;2.27;;
16832;SDS011;8533;48.426;10.868;2022-08-01T06:16:12;3.53;;;2.50;;
16832;SDS011;8533;48.426;10.868;2022-08-01T06:18:40;2.97;;;2.40;;
16832;SDS011;8533;48.426;10.868;2022-08-01T06:21:07;2.67;;;2.40;;
16832;SDS011;8533;48.426;10.868;2022-08-01T06:23:35;3.40;;;2.67;;
16832;SDS011;8533;48.426;10.868;2022-08-01T06:26:02;2.80;;;2.40;;
16832;SDS011;8533;48.426;10.868;2022-08-01T06:28:30;2.60;;;2.40;;
16832;SDS011;8533;48.426;10.868;2022-08-01T06:30:57;2.93;;;2.53;;
16832;SDS011;8533;48.426;10.868;2022-08-01T06:33:25;2.73;;;2.33;;
16832;SDS011;8533;48.426;10.868;2022-08-01T06:35:53;2.40;;;2.20;;
16832;SDS011;8533;48.426;10.868;2022-08-01T06:38:21;2.87;;;2.40;;
16832;SDS011;8533;48.426;10.868;2022-08-01T06:40:49;3.03;;;2.63;;
16832;SDS011;8533;48.426;10.868;2022-08-01T06:43:17;4.70;;;2.57;;
16832;SDS011;8533;48.426;10.868;2022-08-01T06:45:44;4.57;;;2.30;;
16832;SDS011;8533;48.426;10.868;2022-08-01T06:48:12;2.73;;;2.50;;
16832;SDS011;8533;48.426;10.868;2022-08-01T06:50:39;4.40;;;2.40;;
16832;SDS011;8533;48.426;10.868;2022-08-01T06:53:07;3.60;;;2.40;;
16832;SDS011;8533;48.426;10.868;2022-08-01T06:55:34;2.60;;;2.40;;
16832;SDS011;8533;48.426;10.868;2022-08-01T06:58:02;2.57;;;2.20;;
16832;SDS011;8533;48.426;10.868;2022-08-01T07:00:29;3.50;;;2.43;;
16832;SDS011;8533;48.426;10.868;2022-08-01T07:02:57;3.73;;;2.40;;
16832;SDS011;8533;48.426;10.868;2022-08-01T07:05:25;2.93;;;2.40;;
16832;SDS011;8533;48.426;10.868;2022-08-01T07:07:53;2.90;;;2.57;;
16832;SDS011;8533;48.426;10.868;2022-08-01T07:10:20;2.80;;;2.40;;
16832;SDS011;8533;48.426;10.868;2022-08-01T07:12:48;2.80;;;2.50;;
16832;SDS011;8533;48.426;10.868;2022-08-01T07:15:16;2.73;;;2.33;;
16832;SDS011;8533;48.426;10.868;2022-08-01T07:17:45;2.60;;;2.40;;
16832;SDS011;8533;48.426;10.868;2022-08-01T07:20:12;2.83;;;2.30;;
16832;SDS011;8533;48.426;10.868;2022-08-01T07:22:39;2.50;;;2.30;;
16832;SDS011;8533;48.426;10.868;2022-08-01T07:25:07;2.63;;;2.27;;
16832;SDS011;8533;48.426;10.868;2022-08-01T07:27:35;2.40;;;2.20;;
16832;SDS011;8533;48.426;10.868;2022-08-01T07:30:04;2.50;;;2.23;;
16832;SDS011;8533;48.426;10.868;2022-08-01T07:32:32;2.67;;;2.30;;
16832;SDS011;8533;48.426;10.868;2022-08-01T07:35:00;3.60;;;2.30;;
16832;SDS011;8533;48.426;10.868;2022-08-01T07:37:28;2.37;;;2.17;;
16832;SDS011;8533;48.426;10.868;2022-08-01T07:39:56;2.37;;;2.13;;
16832;SDS011;8533;48.426;10.868;2022-08-01T07:42:23;2.67;;;2.40;;
16832;SDS011;8533;48.426;10.868;2022-08-01T07:44:51;2.27;;;2.00;;
16832;SDS011;8533;48.426;10.868;2022-08-01T07:47:23;3.10;;;2.20;;
16832;SDS011;8533;48.426;10.868;2022-08-01T07:52:21;2.13;;;1.93;;
16832;SDS011;8533;48.426;10.868;2022-08-01T07:54:49;3.33;;;2.43;;
16832;SDS011;8533;48.426;10.868;2022-08-01T07:57:16;2.30;;;2.10;;
16832;SDS011;8533;48.426;10.868;2022-08-01T07:59:44;3.40;;;1.93;;
16832;SDS011;8533;48.426;10.868;2022-08-01T08:02:11;4.23;;;2.20;;
16832;SDS011;8533;48.426;10.868;2022-08-01T08:04:39;4.80;;;2.03;;
16832;SDS011;8533;48.426;10.868;2022-08-01T08:07:06;2.20;;;2.00;;
16832;SDS011;8533;48.426;10.868;2022-08-01T08:09:34;2.27;;;2.07;;
16832;SDS011;8533;48.426;10.868;2022-08-01T08:12:01;2.30;;;1.87;;
16832;SDS011;8533;48.426;10.868;2022-08-01T08:14:29;2.57;;;2.17;;
16832;SDS011;8533;48.426;10.868;2022-08-01T08:16:56;2.03;;;1.80;;
16832;SDS011;8533;48.426;10.868;2022-08-01T08:19:24;2.67;;;1.90;;
16832;SDS011;8533;48.426;10.868;2022-08-01T08:21:51;1.80;;;1.70;;
16832;SDS011;8533;48.426;10.868;2022-08-01T08:24:19;2.30;;;2.07;;
16832;SDS011;8533;48.426;10.868;2022-08-01T08:26:47;2.13;;;1.80;;
16832;SDS011;8533;48.426;10.868;2022-08-01T08:29:15;2.27;;;1.80;;
16832;SDS011;8533;48.426;10.868;2022-08-01T08:31:43;1.83;;;1.50;;
16832;SDS011;8533;48.426;10.868;2022-08-01T08:34:11;1.93;;;1.73;;
16832;SDS011;8533;48.426;10.868;2022-08-01T08:36:38;2.37;;;1.70;;
16832;SDS011;8533;48.426;10.868;2022-08-01T08:39:06;1.80;;;1.53;;
16832;SDS011;8533;48.426;10.868;2022-08-01T08:41:33;1.80;;;1.70;;
16832;SDS011;8533;48.426;10.868;2022-08-01T08:44:07;1.33;;;1.23;;
16832;SDS011;8533;48.426;10.868;2022-08-01T08:46:32;1.57;;;1.37;;
16832;SDS011;8533;48.426;10.868;2022-08-01T08:49:01;1.70;;;1.60;;
16832;SDS011;8533;48.426;10.868;2022-08-01T08:51:32;1.70;;;1.60;;
16832;SDS011;8533;48.426;10.868;2022-08-01T08:54:02;3.30;;;1.57;;
16832;SDS011;8533;48.426;10.868;2022-08-01T08:56:31;1.63;;;1.50;;
16832;SDS011;8533;48.426;10.868;2022-08-01T08:59:00;1.53;;;1.43;;
16832;SDS011;8533;48.426;10.868;2022-08-01T09:01:28;1.50;;;1.40;;
16832;SDS011;8533;48.426;10.868;2022-08-01T09:03:59;1.73;;;1.63;;
16832;SDS011;8533;48.426;10.868;2022-08-01T09:06:26;3.13;;;1.47;;
16832;SDS011;8533;48.426;10.868;2022-08-01T09:08:55;1.50;;;1.40;;
16832;SDS011;8533;48.426;10.868;2022-08-01T09:11:23;2.37;;;1.80;;
16832;SDS011;8533;48.426;10.868;2022-08-01T09:16:43;1.33;;;1.23;;
16832;SDS011;8533;48.426;10.868;2022-08-01T09:21:58;1.93;;;1.50;;
16832;SDS011;8533;48.426;10.868;2022-08-01T09:24:29;1.90;;;1.30;;
16832;SDS011;8533;48.426;10.868;2022-08-01T09:26:57;2.77;;;1.50;;
16832;SDS011;8533;48.426;10.868;2022-08-01T09:29:28;2.13;;;1.60;;
16832;SDS011;8533;48.426;10.868;2022-08-01T09:31:57;1.77;;;1.67;;
16832;SDS011;8533;48.426;10.868;2022-08-01T09:34:28;1.67;;;1.57;;
16832;SDS011;8533;48.426;10.868;2022-08-01T09:36:59;2.53;;;1.70;;
16832;SDS011;8533;48.426;10.868;2022-08-01T09:39:36;1.70;;;1.40;;
16832;SDS011;8533;48.426;10.868;2022-08-01T09:44:41;1.57;;;1.30;;
16832;SDS011;8533;48.426;10.868;2022-08-01T09:47:09;1.77;;;1.57;;
16832;SDS011;8533;48.426;10.868;2022-08-01T09:49:38;2.50;;;1.40;;
16832;SDS011;8533;48.426;10.868;2022-08-01T09:52:17;3.43;;;1.50;;
16832;SDS011;8533;48.426;10.868;2022-08-01T09:57:20;1.60;;;1.50;;
16832;SDS011;8533;48.426;10.868;2022-08-01T09:59:49;1.60;;;1.50;;
16832;SDS011;8533;48.426;10.868;2022-08-01T10:02:32;1.40;;;1.30;;
16832;SDS011;8533;48.426;10.868;2022-08-01T10:05:00;1.20;;;1.20;;
16832;SDS011;8533;48.426;10.868;2022-08-01T10:07:32;1.50;;;1.40;;
16832;SDS011;8533;48.426;10.868;2022-08-01T10:10:14;1.40;;;1.30;;
16832;SDS011;8533;48.426;10.868;2022-08-01T10:15:08;2.67;;;1.80;;
16832;SDS011;8533;48.426;10.868;2022-08-01T10:17:38;1.43;;;1.33;;
16832;SDS011;8533;48.426;10.868;2022-08-01T10:20:07;1.67;;;1.57;;
16832;SDS011;8533;48.426;10.868;2022-08-01T10:22:35;2.07;;;1.50;;
16832;SDS011;8533;48.426;10.868;2022-08-01T10:25:04;1.90;;;1.40;;
16832;SDS011;8533;48.426;10.868;2022-08-01T10:27:32;1.27;;;1.17;;
16832;SDS011;8533;48.426;10.868;2022-08-01T10:30:03;1.73;;;1.63;;
16832;SDS011;8533;48.426;10.868;2022-08-01T10:32:33;1.50;;;1.40;;
16832;SDS011;8533;48.426;10.868;2022-08-01T10:35:03;1.53;;;1.43;;
16832;SDS011;8533;48.426;10.868;2022-08-01T10:37:32;1.70;;;1.60;;
16832;SDS011;8533;48.426;10.868;2022-08-01T10:40:01;1.50;;;1.40;;
16832;SDS011;8533;48.426;10.868;2022-08-01T10:42:30;1.50;;;1.40;;
16832;SDS011;8533;48.426;10.868;2022-08-01T10:44:58;1.40;;;1.30;;
16832;SDS011;8533;48.426;10.868;2022-08-01T10:47:31;2.50;;;1.90;;
16832;SDS011;8533;48.426;10.868;2022-08-01T10:52:33;1.60;;;1.50;;
16832;SDS011;8533;48.426;10.868;2022-08-01T10:55:03;1.43;;;1.33;;
16832;SDS011;8533;48.426;10.868;2022-08-01T11:00:09;1.60;;;1.50;;
16832;SDS011;8533;48.426;10.868;2022-08-01T11:07:58;1.97;;;1.53;;
16832;SDS011;8533;48.426;10.868;2022-08-01T11:10:40;1.50;;;1.40;;
16832;SDS011;8533;48.426;10.868;2022-08-01T11:15:39;1.70;;;1.60;;
16832;SDS011;8533;48.426;10.868;2022-08-01T11:21:00;1.77;;;1.50;;
16832;SDS011;8533;48.426;10.868;2022-08-01T11:23:29;1.50;;;1.40;;
16832;SDS011;8533;48.426;10.868;2022-08-01T11:28:32;1.60;;;1.50;;
16832;SDS011;8533;48.426;10.868;2022-08-01T11:31:24;1.70;;;1.60;;
16832;SDS011;8533;48.426;10.868;2022-08-01T11:38:46;1.77;;;1.67;;
16832;SDS011;8533;48.426;10.868;2022-08-01T11:41:24;1.83;;;1.70;;
16832;SDS011;8533;48.426;10.868;2022-08-01T11:43:56;1.73;;;1.63;;
16832;SDS011;8533;48.426;10.868;2022-08-01T11:51:58;1.83;;;1.73;;
16832;SDS011;8533;48.426;10.868;2022-08-01T11:54:33;2.10;;;1.67;;
16832;SDS011;8533;48.426;10.868;2022-08-01T11:56:59;1.73;;;1.60;;
16832;SDS011;8533;48.426;10.868;2022-08-01T11:59:28;1.70;;;1.60;;
16832;SDS011;8533;48.426;10.868;2022-08-01T12:04:50;1.73;;;1.60;;
16832;SDS011;8533;48.426;10.868;2022-08-01T12:09:59;1.60;;;1.50;;
16832;SDS011;8533;48.426;10.868;2022-08-01T12:14:57;1.93;;;1.73;;
16832;SDS011;8533;48.426;10.868;2022-08-01T12:17:34;1.97;;;1.63;;
16832;SDS011;8533;48.426;10.868;2022-08-01T12:22:31;5.50;;;1.40;;
16832;SDS011;8533;48.426;10.868;2022-08-01T12:25:08;1.30;;;1.20;;
16832;SDS011;8533;48.426;10.868;2022-08-01T12:30:10;1.37;;;1.30;;
16832;SDS011;8533;48.426;10.868;2022-08-01T12:32:43;1.90;;;1.67;;
16832;SDS011;8533;48.426;10.868;2022-08-01T12:35:13;1.97;;;1.60;;
16832;SDS011;8533;48.426;10.868;2022-08-01T12:37:43;1.60;;;1.50;;
16832;SDS011;8533;48.426;10.868;2022-08-01T12:40:21;2.73;;;1.40;;
16832;SDS011;8533;48.426;10.868;2022-08-01T12:42:48;1.60;;;1.50;;
16832;SDS011;8533;48.426;10.868;2022-08-01T12:45:25;1.50;;;1.40;;
16832;SDS011;8533;48.426;10.868;2022-08-01T12:50:25;3.37;;;1.60;;
16832;SDS011;8533;48.426;10.868;2022-08-01T12:52:55;1.77;;;1.60;;
16832;SDS011;8533;48.426;10.868;2022-08-01T12:55:24;1.70;;;1.60;;
16832;SDS011;8533;48.426;10.868;2022-08-01T12:58:05;1.70;;;1.60;;
16832;SDS011;8533;48.426;10.868;2022-08-01T13:03:07;1.50;;;1.40;;
16832;SDS011;8533;48.426;10.868;2022-08-01T13:05:42;1.97;;;1.50;;
16832;SDS011;8533;48.426;10.868;2022-08-01T13:10:45;2.10;;;1.73;;
16832;SDS011;8533;48.426;10.868;2022-08-01T13:13:13;3.77;;;1.70;;
16832;SDS011;8533;48.426;10.868;2022-08-01T13:15:42;2.30;;;1.60;;
16832;SDS011;8533;48.426;10.868;2022-08-01T13:18:26;1.83;;;1.70;;
16832;SDS011;8533;48.426;10.868;2022-08-01T13:21:10;1.40;;;1.30;;
16832;SDS011;8533;48.426;10.868;2022-08-01T13:23:41;2.50;;;1.80;;
16832;SDS011;8533;48.426;10.868;2022-08-01T13:26:10;1.70;;;1.60;;
16832;SDS011;8533;48.426;10.868;2022-08-01T13:28:37;1.90;;;1.70;;
16832;SDS011;8533;48.426;10.868;2022-08-01T13:31:08;2.30;;;1.67;;
16832;SDS011;8533;48.426;10.868;2022-08-01T13:33:44;1.80;;;1.70;;
16832;SDS011;8533;48.426;10.868;2022-08-01T13:36:10;1.80;;;1.70;;
16832;SDS011;8533;48.426;10.868;2022-08-01T13:38:38;1.70;;;1.60;;
16832;SDS011;8533;48.426;10.868;2022-08-01T13:41:23;1.60;;;1.50;;
16832;SDS011;8533;48.426;10.868;2022-08-01T13:43:51;1.83;;;1.73;;
16832;SDS011;8533;48.426;10.868;2022-08-01T13:46:20;2.97;;;1.40;;
16832;SDS011;8533;48.426;10.868;2022-08-01T13:48:47;2.57;;;1.90;;
16832;SDS011;8533;48.426;10.868;2022-08-01T13:51:15;2.83;;;1.80;;
16832;SDS011;8533;48.426;10.868;2022-08-01T13:53:42;4.37;;;2.07;;
16832;SDS011;8533;48.426;10.868;2022-08-01T13:56:09;1.93;;;1.70;;
16832;SDS011;8533;48.426;10.868;2022-08-01T13:58:37;5.60;;;1.53;;
16832;SDS011;8533;48.426;10.868;2022-08-01T14:01:04;2.00;;;1.40;;
16832;SDS011;8533;48.426;10.868;2022-08-01T14:03:32;2.20;;;1.13;;
16832;SDS011;8533;48.426;10.868;2022-08-01T14:05:59;3.10;;;1.10;;
16832;SDS011;8533;48.426;10.868;2022-08-01T14:08:28;3.83;;;1.10;;
16832;SDS011;8533;48.426;10.868;2022-08-01T14:10:55;2.33;;;1.00;;
16832;SDS011;8533;48.426;10.868;2022-08-01T14:13:27;1.50;;;0.90;;
16832;SDS011;8533;48.426;10.868;2022-08-01T14:15:54;1.90;;;1.37;;
16832;SDS011;8533;48.426;10.868;2022-08-01T14:18:23;1.40;;;1.30;;
16832;SDS011;8533;48.426;10.868;2022-08-01T14:20:51;1.83;;;1.30;;
16832;SDS011;8533;48.426;10.868;2022-08-01T14:23:18;2.20;;;1.63;;
16832;SDS011;8533;48.426;10.868;2022-08-01T14:25:46;1.30;;;1.20;;
16832;SDS011;8533;48.426;10.868;2022-08-01T14:28:13;1.63;;;1.13;;
16832;SDS011;8533;48.426;10.868;2022-08-01T14:30:41;1.53;;;1.40;;
16832;SDS011;8533;48.426;10.868;2022-08-01T14:33:09;1.13;;;0.97;;
16832;SDS011;8533;48.426;10.868;2022-08-01T14:35:36;2.43;;;1.00;;
16832;SDS011;8533;48.426;10.868;2022-08-01T14:38:04;3.23;;;1.30;;
16832;SDS011;8533;48.426;10.868;2022-08-01T14:40:33;3.07;;;1.20;;
16832;SDS011;8533;48.426;10.868;2022-08-01T14:43:01;2.30;;;1.40;;
16832;SDS011;8533;48.426;10.868;2022-08-01T14:45:28;1.37;;;1.27;;
16832;SDS011;8533;48.426;10.868;2022-08-01T14:47:56;2.13;;;1.17;;
16832;SDS011;8533;48.426;10.868;2022-08-01T14:50:23;1.33;;;1.23;;
16832;SDS011;8533;48.426;10.868;2022-08-01T14:52:52;1.00;;;1.00;;
16832;SDS011;8533;48.426;10.868;2022-08-01T14:55:20;2.90;;;1.63;;
16832;SDS011;8533;48.426;10.868;2022-08-01T14:57:49;3.00;;;1.50;;
16832;SDS011;8533;48.426;10.868;2022-08-01T15:00:17;3.13;;;1.50;;
16832;SDS011;8533;48.426;10.868;2022-08-01T15:02:45;3.83;;;1.40;;
16832;SDS011;8533;48.426;10.868;2022-08-01T15:05:12;2.20;;;1.40;;
16832;SDS011;8533;48.426;10.868;2022-08-01T15:07:40;1.60;;;1.30;;
16832;SDS011;8533;48.426;10.868;2022-08-01T15:10:07;1.17;;;0.93;;
16832;SDS011;8533;48.426;10.868;2022-08-01T15:12:35;1.77;;;1.40;;
16832;SDS011;8533;48.426;10.868;2022-08-01T15:15:03;2.53;;;1.27;;
16832;SDS011;8533;48.426;10.868;2022-08-01T15:17:31;2.67;;;1.20;;
16832;SDS011;8533;48.426;10.868;2022-08-01T15:20:00;1.03;;;1.03;;
16832;SDS011;8533;48.426;10.868;2022-08-01T15:22:29;2.20;;;1.10;;
16832;SDS011;8533;48.426;10.868;2022-08-01T15:24:57;1.00;;;0.90;;
16832;SDS011;8533;48.426;10.868;2022-08-01T15:27:27;1.60;;;0.97;;
16832;SDS011;8533;48.426;10.868;2022-08-01T15:29:55;0.87;;;0.87;;
16832;SDS011;8533;48.426;10.868;2022-08-01T15:32:23;1.00;;;0.90;;
16832;SDS011;8533;48.426;10.868;2022-08-01T15:34:50;1.00;;;0.90;;
16832;SDS011;8533;48.426;10.868;2022-08-01T15:37:17;0.90;;;0.90;;
16832;SDS011;8533;48.426;10.868;2022-08-01T15:39:45;1.33;;;1.10;;
16832;SDS011;8533;48.426;10.868;2022-08-01T15:42:13;1.13;;;1.00;;
16832;SDS011;8533;48.426;10.868;2022-08-01T15:44:41;1.50;;;1.23;;
16832;SDS011;8533;48.426;10.868;2022-08-01T15:47:09;1.17;;;1.03;;
16832;SDS011;8533;48.426;10.868;2022-08-01T15:49:37;1.30;;;1.20;;
16832;SDS011;8533;48.426;10.868;2022-08-01T15:52:10;2.43;;;1.30;;
16832;SDS011;8533;48.426;10.868;2022-08-01T15:54:34;2.00;;;1.40;;
16832;SDS011;8533;48.426;10.868;2022-08-01T15:57:02;1.63;;;1.40;;
16832;SDS011;8533;48.426;10.868;2022-08-01T15:59:29;1.63;;;1.20;;
16832;SDS011;8533;48.426;10.868;2022-08-01T16:01:57;2.07;;;1.43;;
16832;SDS011;8533;48.426;10.868;2022-08-01T16:04:24;1.53;;;1.10;;
16832;SDS011;8533;48.426;10.868;2022-08-01T16:06:51;1.10;;;1.10;;
16832;SDS011;8533;48.426;10.868;2022-08-01T16:09:19;1.50;;;1.40;;
16832;SDS011;8533;48.426;10.868;2022-08-01T16:11:46;2.17;;;1.50;;
16832;SDS011;8533;48.426;10.868;2022-08-01T16:14:14;4.83;;;1.60;;
16832;SDS011;8533;48.426;10.868;2022-08-01T16:16:41;1.30;;;1.20;;
16832;SDS011;8533;48.426;10.868;2022-08-01T16:19:08;2.80;;;1.47;;
16832;SDS011;8533;48.426;10.868;2022-08-01T16:21:36;1.70;;;1.30;;
16832;SDS011;8533;48.426;10.868;2022-08-01T16:24:03;2.53;;;1.10;;
16832;SDS011;8533;48.426;10.868;2022-08-01T16:26:31;1.30;;;1.20;;
16832;SDS011;8533;48.426;10.868;2022-08-01T16:28:58;1.53;;;1.30;;
16832;SDS011;8533;48.426;10.868;2022-08-01T16:31:26;0.87;;;0.87;;